Terminal Aerodrome Forecast
Issued by NWS

Home | Current Version | Previous Version | Text Only | Print | Product List | Glossary On
Versions: 1 2 3 4 5 6 7 8 9 10 11 12 13 14 15 16 17 18
634
FTUS41 KPBZ 201424 AAA
TAFAGC
TAF AMD
KAGC 201424Z 2014/2112 31007G17KT P6SM FEW010 BKN040
     FM202000 30008KT P6SM SCT070
     FM210700 VRB03KT 4SM BR BKN070=

USA.gov is the U.S. government's official web portal to all federal, state and local government web resources and services.